Time;durP1;ratioP1;P1;durP2;ratioP2;P2;SDS_P1;SDS_P2;PMS_P1;PMS_P2;Temp;Humidity;BMP_temperature;BMP_pressure;BME280_temperature;BME280_humidity;BME280_pressure;Samples;Min_cycle;Max_cycle;Signal;HPM_P1;HPM_P2
2021/12/29 00:02:21;;;;;;;38.53;15.60;;;;;;;-10.32;69.47;101012.53;4917373;29;20075;-84
2021/12/29 00:04:48;;;;;;;65.28;17.02;;;;;;;-10.51;69.53;101004.69;4917492;29;20083;-83
2021/12/29 00:07:15;;;;;;;41.83;14.77;;;;;;;-10.53;69.13;101008.69;4900582;29;20052;-85
2021/12/29 00:09:42;;;;;;;44.92;15.70;;;;;;;-10.56;69.26;101009.97;4917804;29;20059;-84
2021/12/29 00:12:10;;;;;;;42.80;14.70;;;;;;;-10.58;69.32;101017.41;4901307;29;20067;-84
2021/12/29 00:14:37;;;;;;;44.83;14.38;;;;;;;-10.69;69.07;101011.94;4917414;29;20060;-83
2021/12/29 00:17:04;;;;;;;46.17;14.02;;;;;;;-10.79;69.83;101010.09;4917421;29;20067;-82
2021/12/29 00:19:32;;;;;;;43.30;13.80;;;;;;;-10.93;69.62;100991.84;4917468;29;20127;-84
2021/12/29 00:21:59;;;;;;;42.60;14.80;;;;;;;-10.83;69.73;101013.91;4931966;29;20039;-84
2021/12/29 00:24:25;;;;;;;40.72;14.60;;;;;;;-10.76;69.96;101012.94;4935696;29;20087;-84
2021/12/29 00:26:52;;;;;;;40.65;13.88;;;;;;;-10.83;69.38;101018.06;4936559;29;20055;-85
2021/12/29 00:29:19;;;;;;;38.13;14.73;;;;;;;-10.89;69.28;101015.78;4916223;29;20060;-84
2021/12/29 00:32:07;;;;;;;40.33;14.75;;;;;;;-10.99;69.96;101005.44;4917140;29;20052;-85
2021/12/29 00:34:53;;;;;;;50.45;15.77;;;;;;;-11.02;69.66;100983.31;4927295;29;20398;-84
2021/12/29 00:37:59;;;;;;;40.20;14.73;;;;;;;-11.05;69.90;100994.72;4842933;29;20087;-85
2021/12/29 00:40:45;;;;;;;41.53;15.60;;;;;;;-10.85;70.28;100994.31;4931872;29;20052;-84
2021/12/29 00:43:30;;;;;;;51.30;16.17;;;;;;;-10.70;69.69;100989.97;4937066;29;20055;-86
2021/12/29 00:46:28;;;;;;;54.53;16.25;;;;;;;-10.66;69.58;100989.56;4919042;29;20056;-85
2021/12/29 00:48:57;;;;;;;54.75;16.58;;;;;;;-10.61;70.05;100993.44;4901351;29;20060;-84
2021/12/29 00:51:24;;;;;;;55.22;16.65;;;;;;;-10.60;69.98;100991.09;4917923;29;20060;-83
2021/12/29 00:53:51;;;;;;;61.28;17.30;;;;;;;-10.47;70.20;100995.81;4917053;29;20059;-83
2021/12/29 00:56:18;;;;;;;80.43;18.10;;;;;;;-10.43;70.13;100991.94;4917547;29;20052;-84
2021/12/29 00:58:45;;;;;;;63.15;15.98;;;;;;;-10.39;69.87;100989.00;4917347;29;20056;-84
2021/12/29 01:01:12;;;;;;;47.83;15.52;;;;;;;-10.57;70.13;100952.63;4930286;29;20059;-86
2021/12/29 01:03:40;;;;;;;64.40;15.90;;;;;;;-10.51;70.91;100988.63;4936629;29;20086;-84
2021/12/29 01:06:07;;;;;;;52.78;15.07;;;;;;;-10.59;71.03;100962.56;4936269;29;20116;-83
2021/12/29 01:08:34;;;;;;;65.15;17.20;;;;;;;-10.35;71.12;100978.47;4920970;29;20056;-83
2021/12/29 01:11:03;;;;;;;84.68;19.10;;;;;;;-10.30;71.24;100964.72;4937899;29;20508;-83
2021/12/29 01:13:32;;;;;;;63.03;16.63;;;;;;;-10.14;71.22;100984.81;4937180;29;20118;-84
2021/12/29 01:18:34;;;;;;;77.95;18.83;;;;;;;-10.00;71.15;100987.16;4935964;29;20063;-85
2021/12/29 01:21:01;;;;;;;87.70;24.08;;;;;;;-10.03;70.99;100945.47;4936070;29;20107;-83
2021/12/29 01:23:28;;;;;;;70.75;21.92;;;;;;;-9.98;71.27;100967.97;4935651;29;20063;-83
2021/12/29 01:25:55;;;;;;;85.60;23.65;;;;;;;-10.02;71.46;100952.31;4918438;29;20063;-84
2021/12/29 01:28:23;;;;;;;82.45;19.58;;;;;;;-9.98;71.45;100973.03;4910993;29;20107;-82
2021/12/29 01:30:50;;;;;;;73.30;17.83;;;;;;;-10.15;71.45;100966.25;4918570;29;20052;-83
2021/12/29 01:33:17;;;;;;;78.57;20.23;;;;;;;-10.36;72.00;100962.44;4919294;29;20051;-82
2021/12/29 01:35:44;;;;;;;76.53;20.75;;;;;;;-10.33;71.59;100971.94;4918710;29;20047;-82
2021/12/29 01:38:10;;;;;;;66.97;18.88;;;;;;;-10.29;72.03;100976.59;4935842;29;20079;-80
2021/12/29 01:40:39;;;;;;;56.70;17.63;;;;;;;-10.22;71.88;100973.91;4937021;29;20058;-82
2021/12/29 01:43:08;;;;;;;48.72;15.90;;;;;;;-10.25;72.03;100973.63;4936033;29;20147;-83
2021/12/29 01:45:36;;;;;;;41.97;13.57;;;;;;;-10.23;71.77;100977.19;4904968;29;20104;-82
2021/12/29 01:48:05;;;;;;;34.15;11.88;;;;;;;-10.38;72.00;100973.13;4887225;29;20385;-83
2021/12/29 01:50:33;;;;;;;41.35;12.45;;;;;;;-10.48;71.48;100975.41;4919700;29;20056;-81
2021/12/29 01:53:07;;;;;;;34.15;12.00;;;;;;;-10.59;71.53;100972.66;4920151;29;20176;-83
2021/12/29 01:55:39;;;;;;;28.20;9.82;;;;;;;-10.57;71.46;100971.19;4941808;29;20059;-83
2021/12/29 01:58:07;;;;;;;30.48;10.25;;;;;;;-10.56;71.85;100973.00;4944212;29;20522;-81
2021/12/29 02:00:36;;;;;;;43.92;11.90;;;;;;;-10.63;71.79;100952.88;4938255;29;20083;-83
2021/12/29 02:03:03;;;;;;;34.73;11.03;;;;;;;-10.57;71.60;100957.69;4938570;29;20059;-83
2021/12/29 02:05:30;;;;;;;39.17;11.40;;;;;;;-10.53;71.68;100972.41;4959808;29;20055;-83
2021/12/29 02:07:57;;;;;;;34.40;11.73;;;;;;;-10.71;71.26;100943.59;4960266;29;20059;-83
2021/12/29 02:10:24;;;;;;;37.90;11.57;;;;;;;-10.58;71.43;100978.59;4959933;29;20149;-83
2021/12/29 02:12:52;;;;;;;37.78;12.45;;;;;;;-10.57;71.40;100978.78;4957976;29;20070;-82
2021/12/29 02:15:19;;;;;;;37.83;12.18;;;;;;;-10.57;71.86;100970.31;4957868;29;20101;-84
2021/12/29 02:17:49;;;;;;;35.97;12.30;;;;;;;-10.57;71.40;100966.16;4957647;29;20051;-82
2021/12/29 02:20:20;;;;;;;34.90;12.45;;;;;;;-10.56;71.69;100960.38;4957755;29;20043;-82
2021/12/29 02:22:54;;;;;;;34.05;13.18;;;;;;;-10.43;71.68;100974.25;4940514;29;20058;-83
2021/12/29 02:25:32;;;;;;;37.03;13.07;;;;;;;-10.27;71.88;100989.34;4957664;29;20055;-83
2021/12/29 02:28:01;;;;;;;38.92;13.15;;;;;;;-10.31;71.15;100963.78;4957387;29;20055;-83
2021/12/29 02:30:28;;;;;;;37.05;12.80;;;;;;;-10.17;71.15;100987.06;4957164;29;20047;-82
2021/12/29 02:32:57;;;;;;;33.20;13.30;;;;;;;-10.07;71.24;100992.28;4957293;29;20062;-82
2021/12/29 02:35:25;;;;;;;34.27;13.23;;;;;;;-10.07;71.35;100979.66;4957312;29;20059;-83
2021/12/29 02:37:53;;;;;;;34.53;13.00;;;;;;;-9.99;70.42;100977.91;4957440;29;20463;-84
2021/12/29 02:40:19;;;;;;;35.47;13.07;;;;;;;-9.96;70.56;100985.81;4957500;29;20057;-84
2021/12/29 02:42:47;;;;;;;35.03;12.43;;;;;;;-10.01;70.51;100967.63;4957259;29;20077;-82
2021/12/29 02:45:19;;;;;;;34.53;12.45;;;;;;;-9.91;70.58;100974.53;4957057;29;20153;-83
2021/12/29 02:47:46;;;;;;;34.80;13.10;;;;;;;-10.00;70.26;100960.94;4956908;29;20051;-83
2021/12/29 02:50:15;;;;;;;31.65;13.95;;;;;;;-9.97;70.49;100982.38;4956401;29;20511;-82
2021/12/29 02:52:46;;;;;;;35.88;12.52;;;;;;;-9.86;70.48;100985.13;4956832;29;20055;-82
2021/12/29 02:55:15;;;;;;;39.97;13.40;;;;;;;-9.98;70.31;100951.88;4957163;29;20089;-81
2021/12/29 02:57:42;;;;;;;36.88;12.50;;;;;;;-9.96;70.38;100958.00;4938786;29;20066;-82
2021/12/29 03:00:14;;;;;;;42.20;13.95;;;;;;;-9.82;70.37;100983.06;4956438;29;20047;-81
2021/12/29 03:02:41;;;;;;;36.75;13.55;;;;;;;-9.75;70.75;100974.44;4924690;29;20472;-81
2021/12/29 03:05:08;;;;;;;49.22;15.05;;;;;;;-9.72;70.79;100980.72;4930532;29;20055;-81
2021/12/29 03:07:36;;;;;;;52.47;15.48;;;;;;;-9.68;70.25;100966.72;4950570;29;20036;-79
2021/12/29 03:10:04;;;;;;;55.05;15.25;;;;;;;-9.73;70.56;100956.16;4961283;29;20056;-80
2021/12/29 03:12:31;;;;;;;68.40;17.42;;;;;;;-9.81;69.77;100964.59;4953795;29;20070;-81
2021/12/29 03:14:58;;;;;;;67.18;19.85;;;;;;;-10.01;70.89;100960.06;4942643;29;20051;-81
2021/12/29 03:17:25;;;;;;;72.15;19.58;;;;;;;-9.93;70.72;100948.22;4942117;29;20051;-82
2021/12/29 03:19:53;;;;;;;90.55;21.30;;;;;;;-9.87;71.22;100948.84;4959074;29;20055;-82
2021/12/29 03:22:20;;;;;;;77.63;23.58;;;;;;;-9.90;70.45;100924.09;4941192;29;20508;-82
2021/12/29 03:24:47;;;;;;;69.30;20.65;;;;;;;-9.74;70.19;100950.97;4940218;29;20062;-82
2021/12/29 03:27:14;;;;;;;71.25;21.92;;;;;;;-9.77;70.38;100950.63;4939533;29;20106;-81
2021/12/29 03:29:41;;;;;;;61.75;20.40;;;;;;;-9.85;69.97;100944.84;4939282;29;20055;-82
2021/12/29 03:32:10;;;;;;;62.72;20.05;;;;;;;-9.88;70.49;100964.72;4956413;29;20536;-82
2021/12/29 03:34:37;;;;;;;66.38;19.65;;;;;;;-10.06;69.83;100932.53;4957158;29;20061;-83
2021/12/29 03:37:04;;;;;;;57.55;18.27;;;;;;;-9.95;70.36;100962.31;4956516;29;20066;-83
2021/12/29 03:39:38;;;;;;;55.38;17.75;;;;;;;-9.87;70.66;100948.84;4956285;29;20078;-81
2021/12/29 03:42:06;;;;;;;60.25;19.92;;;;;;;-9.97;70.10;100941.06;4950352;29;20055;-82
2021/12/29 03:44:34;;;;;;;53.83;16.55;;;;;;;-10.17;69.66;100946.63;4924784;29;20111;-84
2021/12/29 03:47:01;;;;;;;50.10;16.77;;;;;;;-10.64;70.22;100938.47;4927255;29;20051;-83
2021/12/29 03:49:28;;;;;;;52.42;16.23;;;;;;;-11.03;71.04;100932.66;4932796;29;20052;-83
2021/12/29 03:51:56;;;;;;;55.10;17.77;;;;;;;-10.94;71.69;100962.31;4926114;29;20059;-82
2021/12/29 03:54:25;;;;;;;55.45;17.98;;;;;;;-10.81;71.44;100961.97;4920611;29;20064;-82
2021/12/29 03:56:52;;;;;;;51.20;17.27;;;;;;;-10.59;71.44;100959.16;4917892;29;20108;-84
2021/12/29 03:59:19;;;;;;;45.80;16.75;;;;;;;-10.45;70.12;100956.44;4902320;29;20052;-85
2021/12/29 04:01:50;;;;;;;49.15;16.75;;;;;;;-10.32;69.89;100964.53;4930650;29;20119;-83
2021/12/29 04:04:18;;;;;;;58.55;18.10;;;;;;;-10.18;69.88;100949.88;4937621;29;20064;-82
2021/12/29 04:06:45;;;;;;;59.65;18.63;;;;;;;-10.12;69.11;100950.50;4937446;29;20055;-84
2021/12/29 04:09:12;;;;;;;55.40;17.75;;;;;;;-10.15;69.21;100950.16;4936258;29;20051;-84
2021/12/29 04:11:39;;;;;;;53.70;15.32;;;;;;;-10.62;69.42;100915.91;4915981;29;20147;-83
2021/12/29 04:14:06;;;;;;;61.90;18.02;;;;;;;-10.65;70.24;100931.63;4934081;29;20055;-81
2021/12/29 04:16:40;;;;;;;57.30;17.60;;;;;;;-10.41;70.36;100939.94;4935781;29;20087;-80
2021/12/29 04:19:14;;;;;;;57.03;18.45;;;;;;;-10.28;70.09;100943.00;4919019;29;20147;-83
2021/12/29 04:21:45;;;;;;;49.47;16.33;;;;;;;-10.26;69.56;100959.16;4919635;29;20063;-82
2021/12/29 04:24:14;;;;;;;59.88;18.75;;;;;;;-10.41;69.44;100945.00;4919919;29;20499;-82
2021/12/29 04:26:41;;;;;;;59.22;20.90;;;;;;;-10.37;69.89;100931.94;4935904;29;20535;-82
2021/12/29 04:29:13;;;;;;;61.92;22.30;;;;;;;-10.22;69.30;100941.06;4936885;29;20102;-83
2021/12/29 04:31:41;;;;;;;57.45;20.10;;;;;;;-10.17;69.52;100939.03;4921129;29;20409;-84
2021/12/29 04:34:09;;;;;;;64.78;21.63;;;;;;;-10.18;69.37;100929.66;4936924;29;20055;-84
2021/12/29 04:36:36;;;;;;;54.95;18.83;;;;;;;-10.13;69.12;100931.00;4919066;29;20065;-83
2021/12/29 04:39:05;;;;;;;52.33;18.48;;;;;;;-10.01;69.26;100932.25;4936084;29;20084;-83
2021/12/29 04:41:32;;;;;;;49.70;18.00;;;;;;;-10.11;69.10;100920.34;4921171;29;20060;-83
2021/12/29 04:43:59;;;;;;;55.95;19.25;;;;;;;-10.12;68.76;100918.53;4937457;29;20052;-86
2021/12/29 04:46:37;;;;;;;56.03;18.92;;;;;;;-10.21;68.81;100920.13;4936354;29;20591;-83
2021/12/29 04:49:09;;;;;;;50.80;17.38;;;;;;;-10.13;69.55;100934.44;4925596;29;20055;-85
2021/12/29 04:51:43;;;;;;;46.60;15.50;;;;;;;-10.32;68.78;100923.22;4937711;29;20050;-84
2021/12/29 04:54:10;;;;;;;44.75;15.23;;;;;;;-10.69;69.41;100936.19;4935819;29;20059;-82
2021/12/29 04:56:37;;;;;;;45.58;17.08;;;;;;;-11.02;69.93;100937.88;4937758;29;20052;-81
2021/12/29 04:59:04;;;;;;;46.63;15.25;;;;;;;-11.14;70.08;100942.53;4939471;29;20059;-83
2021/12/29 05:01:32;;;;;;;51.30;17.15;;;;;;;-11.06;70.32;100940.81;4940164;29;20421;-82
2021/12/29 05:03:59;;;;;;;51.78;17.83;;;;;;;-10.93;69.96;100941.34;4938511;29;20082;-83
2021/12/29 05:09:12;;;;;;;44.17;15.98;;;;;;;-10.71;69.67;100946.13;4935676;29;20047;-82
2021/12/29 05:11:39;;;;;;;51.08;16.10;;;;;;;-10.71;69.10;100951.19;4934699;29;20075;-85
2021/12/29 05:14:09;;;;;;;40.45;14.55;;;;;;;-10.73;68.92;100963.66;4931482;29;20047;-82
2021/12/29 05:16:37;;;;;;;;;;;;;;;-11.03;69.33;100953.75;4927326;29;20051;-83
2021/12/29 05:19:04;;;;;;;45.00;14.48;;;;;;;-11.40;69.81;100941.38;4933562;29;19931;-82
2021/12/29 05:21:31;;;;;;;51.25;16.73;;;;;;;-11.56;70.07;100952.34;4910709;29;20048;-80
2021/12/29 05:23:58;;;;;;;48.10;14.75;;;;;;;-11.85;70.53;100934.09;4928749;29;20079;-82
2021/12/29 05:26:25;;;;;;;56.67;16.95;;;;;;;-11.80;70.73;100944.66;4929201;29;20397;-81
2021/12/29 05:28:52;;;;;;;51.80;16.88;;;;;;;-11.67;70.35;100962.91;4931279;29;20055;-81
2021/12/29 05:31:19;;;;;;;51.33;17.30;;;;;;;-11.75;70.08;100904.09;4911974;29;20052;-82
2021/12/29 05:33:47;;;;;;;60.60;18.77;;;;;;;-11.35;69.79;100945.31;4913078;29;20079;-85
2021/12/29 05:36:14;;;;;;;58.92;19.20;;;;;;;-11.52;69.78;100956.09;4931821;29;20515;-84
2021/12/29 05:38:41;;;;;;;62.30;19.50;;;;;;;-11.66;70.10;100923.44;4913958;29;20142;-84
2021/12/29 05:41:08;;;;;;;57.17;18.80;;;;;;;-11.64;69.95;100932.06;4930280;29;20139;-82
2021/12/29 05:43:35;;;;;;;66.63;18.75;;;;;;;-11.81;69.87;100948.81;4910554;29;20146;-81
2021/12/29 05:46:02;;;;;;;70.68;19.42;;;;;;;-11.99;70.41;100950.25;4931853;29;20052;-83
2021/12/29 05:48:30;;;;;;;62.67;20.25;;;;;;;-12.06;70.95;100924.22;4930605;29;20396;-84
2021/12/29 05:50:57;;;;;;;62.38;20.08;;;;;;;-11.80;70.65;100916.94;4934754;29;20484;-84
2021/12/29 05:53:24;;;;;;;77.70;22.80;;;;;;;-11.44;69.77;100945.22;4930119;29;20519;-81
2021/12/29 05:55:51;;;;;;;74.75;23.05;;;;;;;-11.67;69.79;100911.59;4929673;29;20071;-82
2021/12/29 05:58:18;;;;;;;104.93;26.20;;;;;;;-11.50;69.46;100938.63;4929461;29;20051;-82
2021/12/29 06:00:45;;;;;;;83.53;22.77;;;;;;;-11.68;69.98;100950.13;4910566;29;20491;-80
2021/12/29 06:03:12;;;;;;;80.95;23.77;;;;;;;-11.72;70.37;100945.47;4920830;29;20063;-80
2021/12/29 06:05:39;;;;;;;87.68;24.48;;;;;;;-11.64;70.59;100939.63;4903826;29;20056;-81
2021/12/29 06:08:07;;;;;;;82.65;23.38;;;;;;;-11.56;69.68;100954.88;4921468;29;20194;-85
2021/12/29 06:10:35;;;;;;;81.00;24.23;;;;;;;-11.65;70.54;100970.66;4923416;29;20063;-81
2021/12/29 06:13:02;;;;;;;88.45;24.52;;;;;;;-11.52;70.20;100958.63;4922036;29;20119;-83
2021/12/29 06:15:29;;;;;;;94.82;24.38;;;;;;;-11.33;69.76;100964.03;4910208;29;20055;-82
2021/12/29 06:17:56;;;;;;;85.10;23.92;;;;;;;-11.26;69.33;100953.84;4896531;29;20530;-85
2021/12/29 06:20:23;;;;;;;76.40;23.73;;;;;;;-11.08;69.19;100964.09;4926773;29;20044;-83
2021/12/29 06:22:50;;;;;;;86.57;23.92;;;;;;;-10.96;69.05;100950.25;4914058;29;20044;-85
2021/12/29 06:25:18;;;;;;;83.43;24.92;;;;;;;-10.91;68.80;100949.09;4910356;29;20051;-84
2021/12/29 06:27:45;;;;;;;84.70;23.63;;;;;;;-10.95;68.87;100958.00;4927852;29;20115;-84
2021/12/29 06:30:15;;;;;;;98.68;25.25;;;;;;;-11.03;68.94;100957.91;4929888;29;20043;-84
2021/12/29 06:32:44;;;;;;;88.47;25.38;;;;;;;-11.13;69.62;100961.09;4928721;29;20051;-82
2021/12/29 06:35:13;;;;;;;84.80;24.38;;;;;;;-11.37;69.13;100937.56;4927824;29;20103;-82
2021/12/29 06:37:40;;;;;;;85.65;25.38;;;;;;;-11.46;69.42;100935.66;4907399;29;20056;-84
2021/12/29 06:40:09;;;;;;;84.25;26.33;;;;;;;-11.30;69.99;100971.00;4919421;29;20135;-83
2021/12/29 06:42:36;;;;;;;89.43;25.45;;;;;;;-11.32;69.70;100944.72;4920152;29;20067;-82
2021/12/29 06:45:04;;;;;;;89.07;26.27;;;;;;;-11.15;69.67;100960.03;4919575;29;20056;-84
2021/12/29 06:47:31;;;;;;;83.47;24.85;;;;;;;-11.20;68.83;100973.78;4925170;29;20079;-84
2021/12/29 06:49:59;;;;;;;82.85;25.13;;;;;;;-11.37;69.51;100967.84;4930271;29;20576;-84
2021/12/29 06:52:26;;;;;;;86.80;23.73;;;;;;;-11.35;69.17;100958.81;4926571;29;20067;-84
2021/12/29 06:54:53;;;;;;;79.70;23.45;;;;;;;-11.54;68.86;100947.47;4926833;29;20509;-83
2021/12/29 06:57:24;;;;;;;89.65;24.48;;;;;;;-11.62;69.13;100951.69;4934738;29;20068;-80
2021/12/29 07:00:20;;;;;;;92.18;24.17;;;;;;;-12.05;69.33;100928.53;4944804;29;20028;-80
2021/12/29 07:02:47;;;;;;;80.88;21.95;;;;;;;-11.71;69.30;100959.88;4942901;29;20052;-82
2021/12/29 07:05:15;;;;;;;75.13;21.67;;;;;;;-11.79;69.68;100959.03;4932289;29;20062;-83
2021/12/29 07:07:44;;;;;;;80.38;21.95;;;;;;;-12.08;69.73;100936.66;4933991;29;20108;-82
2021/12/29 07:10:10;;;;;;;75.90;21.35;;;;;;;-12.09;70.13;100941.50;4928442;29;20504;-83
2021/12/29 07:12:38;;;;;;;86.50;24.33;;;;;;;-11.87;70.04;100947.22;4912872;29;20066;-83
2021/12/29 07:15:06;;;;;;;63.40;18.95;;;;;;;-11.84;69.41;100953.50;4932789;29;20060;-82
2021/12/29 07:17:33;;;;;;;68.65;20.17;;;;;;;-12.05;69.60;100933.56;4922242;29;20055;-82
2021/12/29 07:20:00;;;;;;;59.97;19.25;;;;;;;-12.33;69.49;100954.81;4944879;29;20051;-82
2021/12/29 07:22:30;;;;;;;71.90;21.20;;;;;;;-12.32;69.90;100959.13;4941550;29;20079;-83
2021/12/29 07:24:59;;;;;;;75.10;21.67;;;;;;;-12.42;69.74;100967.28;4939409;29;20055;-82
2021/12/29 07:27:26;;;;;;;69.40;19.85;;;;;;;-12.51;69.81;100954.59;4929805;29;20063;-83
2021/12/29 07:29:53;;;;;;;77.68;19.70;;;;;;;-12.44;69.91;100952.00;4911118;29;20052;-85
2021/12/29 07:32:20;;;;;;;67.65;19.05;;;;;;;-12.20;69.81;100958.84;4931133;29;20071;-85
2021/12/29 07:34:47;;;;;;;72.75;19.60;;;;;;;-12.30;69.22;100962.72;4906867;29;20059;-82
2021/12/29 07:37:14;;;;;;;65.57;19.55;;;;;;;-12.45;69.40;100954.34;4933197;29;20505;-86
2021/12/29 07:39:41;;;;;;;66.60;17.40;;;;;;;-12.67;69.33;100944.41;4901458;29;20146;-84
2021/12/29 07:42:08;;;;;;;69.13;18.45;;;;;;;-12.63;69.21;100965.78;4930349;29;20062;-85
2021/12/29 07:44:43;;;;;;;58.28;18.10;;;;;;;-12.70;69.43;100955.78;4909656;29;20058;-83
2021/12/29 07:47:12;;;;;;;58.47;18.08;;;;;;;-12.94;68.82;100941.34;4934536;29;20518;-83
2021/12/29 07:49:40;;;;;;;56.50;17.55;;;;;;;-13.13;68.72;100939.25;4936878;29;20055;-83
2021/12/29 07:52:07;;;;;;;61.10;18.80;;;;;;;-13.12;69.43;100938.53;4919861;29;20148;-83
2021/12/29 07:54:34;;;;;;;58.47;18.30;;;;;;;-13.20;68.90;100932.63;4904317;29;20401;-82
2021/12/29 07:57:01;;;;;;;57.90;17.30;;;;;;;-13.06;69.44;100946.75;4939790;29;20112;-85
2021/12/29 07:59:28;;;;;;;69.22;20.13;;;;;;;-12.76;68.71;100965.16;4937481;29;20063;-83
2021/12/29 08:01:56;;;;;;;55.53;17.30;;;;;;;-12.65;68.47;100949.63;4937615;29;20055;-83
2021/12/29 08:04:23;;;;;;;60.47;18.27;;;;;;;-12.36;68.01;100950.34;4921007;29;20159;-83
2021/12/29 08:06:52;;;;;;;52.35;18.13;;;;;;;-12.17;67.70;100941.59;4920165;29;20059;-82
2021/12/29 08:09:22;;;;;;;60.95;18.13;;;;;;;-12.16;67.27;100923.19;4921498;29;20079;-83
2021/12/29 08:11:49;;;;;;;62.15;19.00;;;;;;;-12.28;66.82;100936.06;4937017;29;20056;-83
2021/12/29 08:14:18;;;;;;;65.68;19.98;;;;;;;-12.24;66.89;100929.00;4919694;29;20044;-83
2021/12/29 08:16:45;;;;;;;59.05;19.45;;;;;;;-12.30;66.97;100938.44;4920455;29;20476;-81
2021/12/29 08:19:12;;;;;;;64.03;20.50;;;;;;;-12.47;67.32;100945.75;4920440;29;20052;-84
2021/12/29 08:21:40;;;;;;;66.65;20.60;;;;;;;-12.32;67.22;100934.84;4936807;29;20142;-83
2021/12/29 08:24:06;;;;;;;57.22;17.80;;;;;;;-12.15;67.20;100909.00;4936653;29;20126;-82
2021/12/29 08:26:34;;;;;;;60.70;19.08;;;;;;;-11.77;66.20;100913.09;4937113;29;20052;-84
2021/12/29 08:29:01;;;;;;;62.75;20.27;;;;;;;-11.94;65.93;100886.84;4936268;29;20048;-83
2021/12/29 08:31:29;;;;;;;67.43;21.27;;;;;;;-11.76;66.35;100901.41;4936489;29;20052;-84
2021/12/29 08:33:57;;;;;;;59.45;19.60;;;;;;;-11.73;65.96;100899.22;4923416;29;20058;-88
2021/12/29 08:36:25;;;;;;;65.13;21.88;;;;;;;-11.58;65.70;100910.94;4904079;29;20428;-83
2021/12/29 08:38:53;;;;;;;73.38;23.33;;;;;;;-11.70;66.18;100909.66;4923037;29;20448;-84
2021/12/29 08:41:20;;;;;;;60.38;20.60;;;;;;;-12.19;65.70;100857.38;4922518;29;20059;-85
2021/12/29 08:43:48;;;;;;;67.53;20.95;;;;;;;-12.28;66.05;100898.28;4940035;29;20107;-85
2021/12/29 08:46:17;;;;;;;70.47;22.33;;;;;;;-12.76;66.33;100857.81;4923591;29;20071;-83
2021/12/29 08:48:45;;;;;;;69.68;23.30;;;;;;;-12.92;67.16;100852.72;4922715;29;20079;-83
2021/12/29 08:51:13;;;;;;;64.50;21.83;;;;;;;-12.63;67.34;100901.22;4919742;29;20055;-85
2021/12/29 08:53:44;;;;;;;66.40;22.75;;;;;;;-12.83;66.58;100861.28;4936904;29;20052;-85
2021/12/29 08:56:12;;;;;;;66.18;22.52;;;;;;;-12.55;66.74;100879.44;4938714;29;20491;-83
2021/12/29 08:58:39;;;;;;;64.97;22.42;;;;;;;-12.29;66.61;100874.75;4939245;29;20055;-82
2021/12/29 09:01:06;;;;;;;72.90;23.45;;;;;;;-12.03;66.54;100890.16;4940265;29;20059;-85
2021/12/29 09:03:34;;;;;;;77.38;23.00;;;;;;;-12.03;66.12;100887.66;4923334;29;20059;-84
2021/12/29 09:06:02;;;;;;;74.60;23.35;;;;;;;-11.91;65.53;100884.66;4923961;29;20087;-83
2021/12/29 09:08:30;;;;;;;64.72;22.52;;;;;;;-11.94;65.82;100881.81;4943067;29;20110;-84
2021/12/29 09:10:57;;;;;;;69.32;21.70;;;;;;;-11.98;65.90;100860.41;4940818;29;20067;-83
2021/12/29 09:13:24;;;;;;;73.75;21.98;;;;;;;-11.79;65.39;100851.53;4939458;29;20059;-83
2021/12/29 09:15:56;;;;;;;73.07;23.30;;;;;;;-11.57;64.92;100868.97;4940961;29;20058;-82
2021/12/29 09:18:25;;;;;;;70.03;23.30;;;;;;;-11.60;64.89;100883.78;4941218;29;20062;-84
2021/12/29 09:20:55;;;;;;;80.93;24.77;;;;;;;-11.51;64.50;100877.19;4939644;29;20076;-82
2021/12/29 09:23:22;;;;;;;72.22;24.50;;;;;;;-11.45;65.07;100861.81;4939035;29;20295;-83
2021/12/29 09:25:49;;;;;;;73.50;23.40;;;;;;;-11.40;64.42;100868.22;4938809;29;20392;-82
2021/12/29 09:28:18;;;;;;;75.53;23.60;;;;;;;-11.65;64.44;100864.75;4939908;29;20067;-84
2021/12/29 09:30:47;;;;;;;74.55;23.52;;;;;;;-11.80;64.97;100852.28;4942865;29;20055;-85
2021/12/29 09:33:16;;;;;;;74.10;22.23;;;;;;;-12.04;64.95;100807.75;4926068;29;20056;-83
2021/12/29 09:35:48;;;;;;;64.88;21.75;;;;;;;-11.73;65.25;100845.38;4944113;29;20063;-85
2021/12/29 09:38:18;;;;;;;72.10;23.13;;;;;;;-11.88;65.29;100859.78;4942995;29;20067;-85
2021/12/29 09:40:46;;;;;;;77.97;24.05;;;;;;;-12.12;65.64;100855.53;4938744;29;20051;-84
2021/12/29 09:43:14;;;;;;;73.18;23.60;;;;;;;-12.24;65.87;100842.50;4939033;29;20058;-82
2021/12/29 09:45:42;;;;;;;75.13;23.90;;;;;;;-12.25;65.56;100849.16;4943169;29;20142;-82
2021/12/29 09:48:10;;;;;;;69.63;23.83;;;;;;;-12.38;65.75;100846.94;4942142;29;20504;-85
2021/12/29 09:50:37;;;;;;;75.03;22.92;;;;;;;-12.42;66.42;100834.72;4925847;29;20571;-84
2021/12/29 09:53:06;;;;;;;69.82;23.25;;;;;;;-12.39;66.23;100836.69;4938940;29;20052;-85
2021/12/29 09:55:35;;;;;;;65.88;22.48;;;;;;;-12.39;66.00;100831.66;4912235;29;20146;-84
2021/12/29 09:58:04;;;;;;;62.85;22.48;;;;;;;-12.32;65.62;100836.66;4940933;29;20150;-84
2021/12/29 10:00:40;;;;;;;66.20;22.80;;;;;;;-12.50;65.40;100822.03;4939953;29;20060;-85
2021/12/29 10:03:11;;;;;;;60.78;19.92;;;;;;;-12.63;65.50;100803.06;4939092;29;20056;-82
2021/12/29 10:05:42;;;;;;;61.83;18.27;;;;;;;-12.78;65.34;100798.88;4922751;29;20059;-84
2021/12/29 10:08:32;;;;;;;62.25;21.02;;;;;;;-12.54;65.55;100827.47;4923418;29;20056;-83
2021/12/29 10:11:06;;;;;;;64.93;23.25;;;;;;;-13.03;65.33;100743.38;4937424;29;20067;-85
2021/12/29 10:13:37;;;;;;;65.78;20.60;;;;;;;-13.00;65.88;100773.00;4921585;29;20146;-83
2021/12/29 10:16:06;;;;;;;;;;;;;;;-12.86;66.09;100827.31;4921899;29;20525;-81
2021/12/29 10:18:37;;;;;;;46.65;16.67;;;;;;;-13.28;66.10;100777.47;4908342;29;20025;-84
2021/12/29 10:21:10;;;;;;;64.53;22.85;;;;;;;-12.87;65.99;100807.94;4937909;29;20047;-84
2021/12/29 10:23:40;;;;;;;59.58;20.50;;;;;;;-12.87;65.91;100782.78;4937896;29;20528;-85
2021/12/29 10:26:30;;;;;;;66.30;21.83;;;;;;;-12.98;65.98;100742.22;4928476;29;20135;-82
2021/12/29 10:29:03;;;;;;;68.80;22.05;;;;;;;-12.43;65.67;100807.78;4921206;29;20059;-85
2021/12/29 10:31:42;;;;;;;64.03;21.58;;;;;;;-12.50;66.13;100772.56;4938085;29;20083;-83
2021/12/29 10:34:14;;;;;;;63.60;22.42;;;;;;;-12.23;65.88;100809.91;4937135;29;20083;-83
2021/12/29 10:36:43;;;;;;;71.55;23.90;;;;;;;-12.16;65.69;100788.81;4937925;29;20056;-83
2021/12/29 10:39:23;;;;;;;70.70;23.77;;;;;;;-12.25;65.84;100765.16;4937362;29;20106;-83
2021/12/29 10:42:17;;;;;;;63.08;23.90;;;;;;;-12.02;65.63;100788.66;4938210;29;20484;-82
2021/12/29 10:44:53;;;;;;;65.45;22.77;;;;;;;-11.97;65.73;100784.13;4936216;28;20070;-85
2021/12/29 10:47:27;;;;;;;63.92;21.23;;;;;;;-11.92;66.02;100777.91;4944366;29;20055;-84
2021/12/29 10:50:07;;;;;;;63.80;22.65;;;;;;;-11.92;65.87;100780.44;4956784;29;20083;-82
2021/12/29 10:52:35;;;;;;;;;;;;;;;-12.08;66.19;100774.53;4947257;29;20047;-84
2021/12/29 10:55:06;;;;;;;48.85;16.80;;;;;;;-12.28;66.32;100754.72;4940322;29;20355;-82
2021/12/29 10:57:33;;;;;;;47.88;17.88;;;;;;;-12.33;66.25;100784.47;4938047;29;20102;-83
2021/12/29 11:00:08;;;;;;;47.78;16.63;;;;;;;-12.61;66.76;100743.72;4937736;29;20115;-84
2021/12/29 11:02:36;;;;;;;58.67;22.85;;;;;;;-12.49;67.01;100773.50;4937941;28;20067;-84
2021/12/29 11:05:10;;;;;;;57.60;21.30;;;;;;;-12.63;66.93;100741.78;4937772;29;20062;-85
2021/12/29 11:07:39;;;;;;;57.10;22.77;;;;;;;-12.48;66.91;100772.75;4937934;29;20059;-83
2021/12/29 11:10:18;;;;;;;52.73;21.10;;;;;;;-12.61;67.12;100748.75;4936440;29;20154;-83
2021/12/29 11:12:55;;;;;;;46.28;18.35;;;;;;;-12.54;66.94;100750.31;4932917;29;20052;-83
2021/12/29 11:15:29;;;;;;;54.72;20.65;;;;;;;-12.89;67.26;100694.53;4927827;29;20052;-82
2021/12/29 11:18:04;;;;;;;63.75;22.73;;;;;;;-12.58;67.36;100735.63;4925687;29;20056;-84